KAMG/AMG METAR and TAF weather

Enter ICAO airport designator
Station Type Date Time Source
KAMG METAR 2020/06/06 12:53 UTC NOAA

KAMG 061253Z AUTO 17004KT 10SM OVC100 24/22 A3004 RMK AO2 SLP170 T02440217


Station Type Date Time Source
KAMG Decoded METAR 2020/06/06 12:53 UTC NOAA

ALMA BACON COUNTY AIRPORT, GA, United States (KAMG) 31-32N 82-30W 59M
Jun 06, 2020 - 08:53 AM EDT / 2020.06.06 1253 UTC
Wind: from the S (170 degrees) at 5 MPH (4 KT):0
Visibility: 10 mile(s):0
Sky conditions: overcast
Temperature: 75.9 F (24.4 C)
Dew Point: 71.1 F (21.7 C)
Relative Humidity: 84%
Pressure (altimeter): 30.04 in. Hg (1017 hPa)
ob: KAMG 061253Z AUTO 17004KT 10SM OVC100 24/22 A3004 RMK AO2 SLP170 T02440217
cycle: 13

Station Type Date Time Source
KAMG TAF UTC NOAA

Error!

Example: see airport list